createdAt,value
2019-02-28T00:00:01.302Z,0
2019-02-28T00:01:17.527Z,0
2019-02-28T00:02:29.813Z,0
2019-02-28T00:03:39.917Z,0
2019-02-28T00:04:50.037Z,0
2019-02-28T00:06:00.162Z,0
2019-02-28T00:07:10.289Z,0
2019-02-28T00:08:25.527Z,0
2019-02-28T00:09:35.654Z,0
2019-02-28T00:10:45.762Z,0
2019-02-28T00:11:55.881Z,0
2019-02-28T00:13:05.639Z,0
2019-02-28T00:14:15.760Z,0
2019-02-28T00:15:25.872Z,0
2019-02-28T00:16:41.104Z,0
2019-02-28T00:17:50.859Z,0
2019-02-28T00:19:00.988Z,0
2019-02-28T00:20:10.846Z,0
2019-02-28T00:21:20.985Z,0
2019-02-28T00:22:31.158Z,0
2019-02-28T00:23:41.311Z,0
2019-02-28T00:24:51.415Z,0
2019-02-28T00:26:01.516Z,0
2019-02-28T00:27:11.646Z,0
2019-02-28T00:28:23.024Z,0
2019-02-28T00:29:40.907Z,0
2019-02-28T00:30:51.020Z,0
2019-02-28T00:32:01.119Z,0
2019-02-28T00:33:11.233Z,0
2019-02-28T00:34:21.347Z,0
2019-02-28T00:35:31.454Z,0
2019-02-28T00:36:41.557Z,0
2019-02-28T00:37:51.733Z,0
2019-02-28T00:39:08.962Z,0
2019-02-28T00:40:19.129Z,0
2019-02-28T00:41:29.225Z,0
2019-02-28T00:42:39.327Z,0
2019-02-28T00:43:49.425Z,0
2019-02-28T00:45:02.130Z,0
2019-02-28T00:46:16.985Z,0
2019-02-28T00:47:27.111Z,0
2019-02-28T00:48:37.218Z,0
2019-02-28T00:49:47.325Z,0
2019-02-28T00:50:58.442Z,0
2019-02-28T00:52:09.588Z,0
2019-02-28T00:53:19.706Z,0
2019-02-28T00:54:29.840Z,0
2019-02-28T00:55:39.952Z,0
2019-02-28T00:56:54.061Z,0
2019-02-28T00:58:04.171Z,0
2019-02-28T00:59:14.265Z,0
2019-02-28T01:00:24.381Z,0
2019-02-28T01:01:34.501Z,0
2019-02-28T01:02:44.837Z,0
2019-02-28T01:04:02.897Z,0
2019-02-28T01:05:13.378Z,0
2019-02-28T01:06:23.473Z,0
2019-02-28T01:07:33.607Z,0
2019-02-28T01:08:43.709Z,0
2019-02-28T01:09:53.832Z,0
2019-02-28T01:11:03.926Z,0
2019-02-28T01:12:18.680Z,0
2019-02-28T01:13:32.142Z,0
2019-02-28T01:14:43.839Z,0
2019-02-28T01:15:53.974Z,0
2019-02-28T01:17:04.095Z,0
2019-02-28T01:18:14.196Z,0
2019-02-28T01:19:24.314Z,0
2019-02-28T01:20:34.439Z,0
2019-02-28T01:21:44.559Z,0
2019-02-28T01:22:54.682Z,0
2019-02-28T01:24:08.045Z,0
2019-02-28T01:25:18.201Z,0
2019-02-28T01:26:30.402Z,0
2019-02-28T01:27:40.678Z,0
2019-02-28T01:28:50.791Z,0
2019-02-28T01:30:00.892Z,0
2019-02-28T01:31:14.111Z,0
2019-02-28T01:32:24.218Z,0
2019-02-28T01:33:34.335Z,0
2019-02-28T01:34:44.434Z,0
2019-02-28T01:35:54.559Z,0
2019-02-28T01:37:04.653Z,0
2019-02-28T01:38:14.750Z,0
2019-02-28T01:39:24.852Z,0
2019-02-28T01:40:42.307Z,0
2019-02-28T01:41:53.166Z,0
2019-02-28T01:43:03.048Z,0
2019-02-28T01:44:12.905Z,0
2019-02-28T01:45:23.003Z,0
2019-02-28T01:46:33.128Z,0
2019-02-28T01:47:43.226Z,0
2019-02-28T01:48:54.507Z,0
2019-02-28T01:50:06.133Z,0
2019-02-28T01:51:16.232Z,0
2019-02-28T01:52:26.343Z,0
2019-02-28T01:53:36.450Z,0
2019-02-28T01:54:46.577Z,0
2019-02-28T01:55:56.717Z,0
2019-02-28T01:57:11.190Z,0
2019-02-28T01:58:23.918Z,0
2019-02-28T01:59:34.026Z,0
2019-02-28T02:00:44.136Z,0
2019-02-28T02:01:54.235Z,0
2019-02-28T02:03:04.090Z,0
2019-02-28T02:04:19.899Z,0
2019-02-28T02:05:30.020Z,0
2019-02-28T02:06:40.130Z,0
2019-02-28T02:07:50.233Z,0
2019-02-28T02:09:00.344Z,0
2019-02-28T02:10:10.446Z,0
2019-02-28T02:11:20.301Z,0
2019-02-28T02:12:33.940Z,0
2019-02-28T02:13:44.493Z,0
2019-02-28T02:14:54.591Z,0
2019-02-28T02:16:04.687Z,0
2019-02-28T02:17:14.792Z,0
2019-02-28T02:18:24.644Z,0
2019-02-28T02:19:34.743Z,0
2019-02-28T02:20:44.842Z,0
2019-02-28T02:21:54.947Z,0
2019-02-28T02:23:05.050Z,0
2019-02-28T02:24:15.159Z,0
2019-02-28T02:25:25.261Z,0
2019-02-28T02:26:35.370Z,0
2019-02-28T02:27:45.501Z,0
2019-02-28T02:29:05.887Z,0
2019-02-28T02:30:21.218Z,0
2019-02-28T02:31:36.248Z,0
2019-02-28T02:32:46.374Z,0
2019-02-28T02:33:59.825Z,0
2019-02-28T02:35:15.451Z,0
2019-02-28T02:36:25.582Z,0
2019-02-28T02:37:38.513Z,0
2019-02-28T02:38:49.131Z,0
2019-02-28T02:39:59.255Z,0
2019-02-28T02:41:12.066Z,0
2019-02-28T02:42:22.179Z,0
2019-02-28T02:43:32.321Z,0
2019-02-28T02:44:42.428Z,0
2019-02-28T02:45:52.546Z,0
2019-02-28T02:47:04.245Z,0
2019-02-28T02:48:14.382Z,0
2019-02-28T02:49:27.253Z,0
2019-02-28T02:50:41.676Z,0
2019-02-28T02:51:56.477Z,0
2019-02-28T02:53:12.500Z,0
2019-02-28T02:54:27.279Z,0
2019-02-28T02:55:37.396Z,0
2019-02-28T02:56:49.295Z,0
2019-02-28T02:57:59.407Z,0
2019-02-28T02:59:09.648Z,0
2019-02-28T03:00:22.104Z,0
2019-02-28T03:01:32.206Z,0
2019-02-28T03:02:42.332Z,0
2019-02-28T03:03:52.431Z,0
2019-02-28T03:05:06.596Z,0
2019-02-28T03:06:21.351Z,0
2019-02-28T03:07:32.333Z,0
2019-02-28T03:08:44.561Z,0
2019-02-28T03:09:54.741Z,0
2019-02-28T03:11:04.584Z,0
2019-02-28T03:12:14.690Z,0
2019-02-28T03:13:24.822Z,0
2019-02-28T03:14:34.938Z,0
2019-02-28T03:15:45.074Z,0
2019-02-28T03:16:55.216Z,0
2019-02-28T03:18:05.348Z,0
2019-02-28T03:19:15.484Z,0
2019-02-28T03:20:25.599Z,0
2019-02-28T03:21:35.721Z,0
2019-02-28T03:22:45.880Z,0
2019-02-28T03:23:56.033Z,0
2019-02-28T03:25:06.180Z,0
2019-02-28T03:26:16.319Z,0
2019-02-28T03:27:27.444Z,0
2019-02-28T03:28:40.323Z,0
2019-02-28T03:29:51.990Z,0
2019-02-28T03:31:15.537Z,0
2019-02-28T03:32:25.890Z,0
2019-02-28T03:33:47.669Z,0
2019-02-28T03:35:05.780Z,0
2019-02-28T03:36:18.972Z,0
2019-02-28T03:37:35.456Z,0
2019-02-28T03:38:53.483Z,0
2019-02-28T03:40:10.261Z,0
2019-02-28T03:41:25.145Z,0
2019-02-28T03:42:36.285Z,0
2019-02-28T03:43:51.389Z,0
2019-02-28T03:45:05.101Z,0
2019-02-28T03:46:18.482Z,0
2019-02-28T03:47:31.394Z,0
2019-02-28T03:48:43.445Z,0
2019-02-28T03:49:57.200Z,0
2019-02-28T03:51:07.067Z,0
2019-02-28T03:52:17.239Z,0
2019-02-28T03:53:28.434Z,0
2019-02-28T03:54:38.539Z,0
2019-02-28T03:55:49.024Z,0
2019-02-28T03:57:00.704Z,0
2019-02-28T03:58:12.538Z,0
2019-02-28T03:59:27.149Z,0
2019-02-28T04:00:41.323Z,0
2019-02-28T04:01:53.697Z,0
2019-02-28T04:03:05.485Z,0
2019-02-28T04:04:19.590Z,0
2019-02-28T04:05:35.171Z,0
2019-02-28T04:06:48.154Z,0
2019-02-28T04:08:01.764Z,0
2019-02-28T04:09:15.878Z,0
2019-02-28T04:10:29.548Z,0
2019-02-28T04:11:39.684Z,0
2019-02-28T04:12:54.054Z,0
2019-02-28T04:14:04.298Z,0
2019-02-28T04:15:17.554Z,0
2019-02-28T04:16:27.668Z,0
2019-02-28T04:17:38.948Z,0
2019-02-28T04:18:53.604Z,0
2019-02-28T04:20:07.444Z,0
2019-02-28T04:21:19.355Z,0
2019-02-28T04:22:30.506Z,0
2019-02-28T04:23:44.125Z,0
2019-02-28T04:24:55.080Z,0
2019-02-28T04:26:05.294Z,0
2019-02-28T04:27:15.428Z,0
2019-02-28T04:28:26.393Z,0
2019-02-28T04:29:38.595Z,0
2019-02-28T04:30:51.193Z,0
2019-02-28T04:32:03.009Z,0
2019-02-28T04:33:13.141Z,0
2019-02-28T04:34:23.265Z,0
2019-02-28T04:35:33.388Z,0
2019-02-28T04:36:43.899Z,0
2019-02-28T04:37:54.670Z,0
2019-02-28T04:39:04.778Z,0
2019-02-28T04:40:14.899Z,0
2019-02-28T04:41:25.002Z,0
2019-02-28T04:42:36.595Z,0
2019-02-28T04:43:51.019Z,0
2019-02-28T04:45:01.130Z,0
2019-02-28T04:46:11.230Z,0
2019-02-28T04:47:21.332Z,0
2019-02-28T04:48:31.429Z,0
2019-02-28T04:49:41.526Z,0
2019-02-28T04:50:51.634Z,0
2019-02-28T04:52:01.751Z,0
2019-02-28T04:53:11.857Z,0
2019-02-28T04:54:24.467Z,0
2019-02-28T04:55:40.274Z,0
2019-02-28T04:56:52.970Z,0
2019-02-28T04:58:02.813Z,0
2019-02-28T04:59:12.918Z,0
2019-02-28T05:00:23.018Z,0
2019-02-28T05:01:33.123Z,0
2019-02-28T05:02:43.227Z,0
2019-02-28T05:03:55.143Z,0
2019-02-28T05:05:14.717Z,0
2019-02-28T05:06:27.825Z,0
2019-02-28T05:07:37.926Z,0
2019-02-28T05:08:48.040Z,0
2019-02-28T05:09:58.183Z,0
2019-02-28T05:11:08.280Z,0
2019-02-28T05:12:18.166Z,0
2019-02-28T05:13:28.269Z,0
2019-02-28T05:14:38.481Z,0
2019-02-28T05:15:48.599Z,0
2019-02-28T05:16:58.699Z,0
2019-02-28T05:18:08.582Z,0
2019-02-28T05:19:18.685Z,0
2019-02-28T05:20:28.808Z,0
2019-02-28T05:21:40.663Z,0
2019-02-28T05:22:50.539Z,0
2019-02-28T05:24:00.642Z,0
2019-02-28T05:25:10.540Z,0
2019-02-28T05:26:30.549Z,0
2019-02-28T05:27:43.176Z,0
2019-02-28T05:28:53.281Z,0
2019-02-28T05:30:03.420Z,0
2019-02-28T05:31:13.521Z,4
2019-02-28T05:32:23.635Z,0
2019-02-28T05:33:33.741Z,4
2019-02-28T05:34:55.482Z,4
2019-02-28T05:36:09.163Z,4
2019-02-28T05:37:20.359Z,4
2019-02-28T05:38:30.528Z,8
2019-02-28T05:39:40.658Z,4
2019-02-28T05:40:51.503Z,8
2019-02-28T05:42:03.282Z,12
2019-02-28T05:43:13.388Z,16
2019-02-28T05:44:23.865Z,20
2019-02-28T05:45:33.976Z,20
2019-02-28T05:46:44.071Z,24
2019-02-28T05:47:54.829Z,28
2019-02-28T05:49:04.944Z,36
2019-02-28T05:50:20.429Z,44
2019-02-28T05:51:32.229Z,48
2019-02-28T05:52:42.331Z,60
2019-02-28T05:53:52.192Z,72
2019-02-28T05:55:02.768Z,80
2019-02-28T05:56:12.866Z,96
2019-02-28T05:57:23.009Z,108
2019-02-28T05:58:33.124Z,120
2019-02-28T05:59:43.230Z,136
2019-02-28T06:00:53.335Z,152
2019-02-28T06:02:03.468Z,172
2019-02-28T06:03:13.575Z,188
2019-02-28T06:04:23.716Z,208
2019-02-28T06:05:33.849Z,232
2019-02-28T06:06:43.944Z,252
2019-02-28T06:07:54.040Z,276
2019-02-28T06:09:03.917Z,300
2019-02-28T06:10:14.017Z,328
2019-02-28T06:11:24.133Z,356
2019-02-28T06:12:34.248Z,388
2019-02-28T06:13:44.517Z,416
2019-02-28T06:15:07.095Z,452
2019-02-28T06:16:19.909Z,484
2019-02-28T06:17:30.012Z,516
2019-02-28T06:18:40.867Z,548
2019-02-28T06:19:51.605Z,584
2019-02-28T06:21:01.740Z,620
2019-02-28T06:22:11.837Z,656
2019-02-28T06:23:21.958Z,696
2019-02-28T06:24:32.059Z,736
2019-02-28T06:25:42.174Z,772
2019-02-28T06:26:52.049Z,812
2019-02-28T06:28:02.145Z,848
2019-02-28T06:29:13.086Z,888
2019-02-28T06:30:23.272Z,932
2019-02-28T06:31:36.935Z,972
2019-02-28T06:32:47.073Z,1016
2019-02-28T06:33:59.493Z,1060
2019-02-28T06:35:09.611Z,1100
2019-02-28T06:36:25.646Z,1148
2019-02-28T06:37:42.915Z,1188
2019-02-28T06:38:56.738Z,1200
2019-02-28T06:40:06.887Z,1264
2019-02-28T06:41:16.986Z,1288
2019-02-28T06:42:27.103Z,1400
2019-02-28T06:43:37.220Z,1448
2019-02-28T06:44:47.316Z,1500
2019-02-28T06:45:58.400Z,1544
2019-02-28T06:47:11.242Z,1588
2019-02-28T06:48:29.184Z,1648
2019-02-28T06:49:45.815Z,1700
2019-02-28T06:50:55.913Z,1756
2019-02-28T06:52:05.770Z,1796
2019-02-28T06:53:15.931Z,1820
2019-02-28T06:54:26.051Z,1924
2019-02-28T06:55:36.174Z,1964
2019-02-28T06:56:46.289Z,1956
2019-02-28T06:57:58.773Z,2076
2019-02-28T06:59:12.264Z,2116
2019-02-28T07:00:22.605Z,2116
2019-02-28T07:01:34.660Z,2068
2019-02-28T07:02:44.758Z,2140
2019-02-28T07:04:00.847Z,2368
2019-02-28T07:05:10.976Z,2440
2019-02-28T07:06:20.724Z,2508
2019-02-28T07:07:30.846Z,2576
2019-02-28T07:08:40.754Z,2604
2019-02-28T07:09:50.863Z,2444
2019-02-28T07:11:00.982Z,2644
2019-02-28T07:12:13.165Z,2840
2019-02-28T07:13:23.409Z,2920
2019-02-28T07:14:33.520Z,2956
2019-02-28T07:15:43.631Z,2812
2019-02-28T07:16:53.756Z,2888
2019-02-28T07:18:03.961Z,3044
2019-02-28T07:19:14.068Z,3356
2019-02-28T07:20:24.193Z,3520
2019-02-28T07:21:42.651Z,3612
2019-02-28T07:22:58.132Z,3732
2019-02-28T07:24:09.880Z,3464
2019-02-28T07:25:21.132Z,3800
2019-02-28T07:26:31.241Z,3944
2019-02-28T07:27:41.146Z,4040
2019-02-28T07:28:51.255Z,4152
2019-02-28T07:30:01.372Z,4280
2019-02-28T07:31:11.488Z,4388
2019-02-28T07:32:21.601Z,4500
2019-02-28T07:33:32.554Z,5272
2019-02-28T07:34:42.681Z,6508
2019-02-28T07:35:52.783Z,7424
2019-02-28T07:37:02.899Z,7928
2019-02-28T07:38:13.003Z,8376
2019-02-28T07:39:22.831Z,8880
2019-02-28T07:40:33.312Z,9300
2019-02-28T07:41:43.892Z,9796
2019-02-28T07:42:53.993Z,10280
2019-02-28T07:44:04.159Z,10472
2019-02-28T07:45:14.650Z,10720
2019-02-28T07:46:24.772Z,10916
2019-02-28T07:47:34.948Z,11304
2019-02-28T07:48:45.107Z,11680
2019-02-28T07:49:57.337Z,12064
2019-02-28T07:51:07.491Z,12320
2019-02-28T07:52:17.340Z,12608
2019-02-28T07:53:28.240Z,12800
2019-02-28T07:54:38.733Z,13216
2019-02-28T07:55:48.845Z,13408
2019-02-28T07:56:58.973Z,13664
2019-02-28T07:58:09.082Z,13952
2019-02-28T07:59:19.246Z,14048
2019-02-28T08:00:29.385Z,14496
2019-02-28T08:01:39.513Z,14592
2019-02-28T08:02:49.715Z,14560
2019-02-28T08:03:59.826Z,15136
2019-02-28T08:05:10.355Z,15808
2019-02-28T08:06:20.477Z,16320
2019-02-28T08:07:30.622Z,17312
2019-02-28T08:08:40.738Z,17792
2019-02-28T08:09:50.894Z,18560
2019-02-28T08:11:00.751Z,18304
2019-02-28T08:12:12.132Z,18592
2019-02-28T08:13:22.376Z,19264
2019-02-28T08:14:32.733Z,19648
2019-02-28T08:15:42.860Z,19584
2019-02-28T08:16:52.732Z,19712
2019-02-28T08:18:02.869Z,16352
2019-02-28T08:19:13.703Z,16064
2019-02-28T08:20:23.855Z,19520
2019-02-28T08:21:34.082Z,20032
2019-02-28T08:22:43.973Z,19808
2019-02-28T08:23:54.147Z,19712
2019-02-28T08:25:07.747Z,19968
2019-02-28T08:26:23.336Z,20160
2019-02-28T08:27:33.539Z,20128
2019-02-28T08:28:43.985Z,19040
2019-02-28T08:29:54.093Z,20704
2019-02-28T08:32:18.576Z,21024
2019-02-28T08:34:43.143Z,21952
2019-02-28T08:35:54.653Z,22528
2019-02-28T08:37:04.794Z,22752
2019-02-28T08:38:20.394Z,23264
2019-02-28T08:39:31.842Z,23392
2019-02-28T08:40:41.977Z,23680
2019-02-28T08:42:05.570Z,19904
2019-02-28T08:43:29.517Z,18656
2019-02-28T08:45:54.790Z,15776
2019-02-28T08:47:04.906Z,17856
2019-02-28T08:48:16.866Z,19168
2019-02-28T08:52:02.442Z,25184
2019-02-28T08:53:19.667Z,25408
2019-02-28T08:54:33.276Z,26240
2019-02-28T08:55:49.148Z,25888
2019-02-28T08:56:59.265Z,22496
2019-02-28T09:00:45.620Z,26496
2019-02-28T09:03:14.114Z,28224
2019-02-28T09:04:23.867Z,27808
2019-02-28T09:06:49.969Z,28192
2019-02-28T09:08:00.743Z,28768
2019-02-28T09:09:10.877Z,28832
2019-02-28T09:10:22.461Z,28992
2019-02-28T09:11:32.316Z,29248
2019-02-28T09:12:44.806Z,29792
2019-02-28T09:15:14.720Z,29760
2019-02-28T09:16:29.684Z,30400
2019-02-28T09:17:40.306Z,30432
2019-02-28T09:18:52.111Z,30880
2019-02-28T09:20:12.520Z,31040
2019-02-28T09:21:25.517Z,30784
2019-02-28T09:22:35.656Z,31744
2019-02-28T09:23:45.911Z,31872
2019-02-28T09:24:56.042Z,32416
2019-02-28T09:26:08.010Z,31360
2019-02-28T09:27:19.278Z,30240
2019-02-28T09:28:29.409Z,30720
2019-02-28T09:29:39.563Z,31200
2019-02-28T09:30:56.965Z,33152
2019-02-28T09:32:19.987Z,28224
2019-02-28T09:33:31.231Z,26560
2019-02-28T09:34:41.467Z,27328
2019-02-28T09:35:53.680Z,27360
2019-02-28T09:37:04.180Z,28480
2019-02-28T09:38:20.393Z,26400
2019-02-28T09:39:30.546Z,24544
2019-02-28T09:40:41.298Z,24672
2019-02-28T09:41:51.519Z,24768
2019-02-28T09:43:01.628Z,28544
2019-02-28T09:44:12.001Z,25440
2019-02-28T09:45:22.319Z,23904
2019-02-28T09:46:32.678Z,30368
2019-02-28T09:47:42.564Z,28064
2019-02-28T09:48:52.714Z,24096
2019-02-28T09:50:03.122Z,25120
2019-02-28T09:51:13.700Z,33120
2019-02-28T09:52:25.432Z,24384
2019-02-28T09:53:35.557Z,33664
2019-02-28T09:54:47.158Z,37856
2019-02-28T09:55:57.311Z,38080
2019-02-28T09:57:08.703Z,38880
2019-02-28T09:58:18.621Z,37984
2019-02-28T09:59:28.789Z,34784
2019-02-28T10:00:38.664Z,37152
2019-02-28T10:02:07.904Z,39392
2019-02-28T10:03:22.984Z,38752
2019-02-28T10:04:37.337Z,38720
2019-02-28T10:05:50.682Z,38784
2019-02-28T10:07:01.783Z,39360
2019-02-28T10:08:14.319Z,36640
2019-02-28T10:09:25.062Z,39840
2019-02-28T10:10:37.842Z,39136
2019-02-28T10:11:48.751Z,39616
2019-02-28T10:12:59.391Z,39616
2019-02-28T10:14:09.732Z,36000
2019-02-28T10:15:20.056Z,40256
2019-02-28T10:16:30.432Z,40000
2019-02-28T10:17:42.244Z,39552
2019-02-28T10:18:52.519Z,38240
2019-02-28T10:20:02.847Z,40128
2019-02-28T10:21:12.976Z,28544
2019-02-28T10:22:23.355Z,31296
2019-02-28T10:23:33.716Z,37120
2019-02-28T10:24:43.847Z,25696
2019-02-28T10:25:54.048Z,38592
2019-02-28T10:27:06.138Z,40096
2019-02-28T10:28:16.493Z,33632
2019-02-28T10:29:26.638Z,43040
2019-02-28T10:30:39.666Z,41728
2019-02-28T10:31:49.771Z,43424
2019-02-28T10:32:59.919Z,44832
2019-02-28T10:34:10.190Z,42912
2019-02-28T10:35:21.012Z,39776
2019-02-28T10:36:31.169Z,45280
2019-02-28T10:37:42.948Z,44768
2019-02-28T10:38:53.065Z,47744
2019-02-28T10:40:04.991Z,46112
2019-02-28T10:41:15.455Z,46848
2019-02-28T10:42:25.631Z,44864
2019-02-28T10:43:35.803Z,46688
2019-02-28T10:44:46.078Z,42528
2019-02-28T10:45:56.208Z,42688
2019-02-28T10:47:06.589Z,41248
2019-02-28T10:48:16.728Z,38656
2019-02-28T10:49:29.945Z,40736
2019-02-28T10:50:41.158Z,36992
2019-02-28T10:51:55.468Z,37344
2019-02-28T10:53:11.578Z,41344
2019-02-28T10:54:22.882Z,41920
2019-02-28T10:55:33.010Z,43392
2019-02-28T10:56:43.944Z,42080
2019-02-28T10:57:54.114Z,43680
2019-02-28T10:59:04.261Z,47936
2019-02-28T11:00:14.135Z,44128
2019-02-28T11:01:23.891Z,41600
2019-02-28T11:02:34.260Z,46688
2019-02-28T11:03:44.395Z,43296
2019-02-28T11:04:54.542Z,42208
2019-02-28T11:06:04.429Z,37312
2019-02-28T11:07:14.781Z,41216
2019-02-28T11:08:26.614Z,42848
2019-02-28T11:09:36.745Z,37344
2019-02-28T11:10:46.360Z,40736
2019-02-28T11:11:56.500Z,40096
2019-02-28T11:13:06.681Z,39488
2019-02-28T11:14:17.037Z,38656
2019-02-28T11:15:27.181Z,40160
2019-02-28T11:16:38.586Z,37088
2019-02-28T11:17:49.754Z,27936
2019-02-28T11:18:59.901Z,41888
2019-02-28T11:20:10.070Z,40032
2019-02-28T11:21:32.981Z,41536
2019-02-28T11:22:45.548Z,36800
2019-02-28T11:23:57.444Z,37920
2019-02-28T11:25:08.954Z,30112
2019-02-28T11:26:19.104Z,32480
2019-02-28T11:27:30.269Z,31232
2019-02-28T11:28:40.419Z,32160
2019-02-28T11:29:50.579Z,38432
2019-02-28T11:31:00.722Z,38304
2019-02-28T11:32:10.627Z,34624
2019-02-28T11:33:22.809Z,40704
2019-02-28T11:34:33.049Z,41184
2019-02-28T11:35:43.192Z,46720
2019-02-28T11:36:53.315Z,46304
2019-02-28T11:38:04.960Z,46848
2019-02-28T11:39:15.203Z,48832
2019-02-28T11:40:25.116Z,47520
2019-02-28T11:41:35.255Z,47968
2019-02-28T11:42:45.385Z,47936
2019-02-28T11:43:55.515Z,46944
2019-02-28T11:45:05.665Z,48384
2019-02-28T11:46:15.799Z,43584
2019-02-28T11:47:25.685Z,37152
2019-02-28T11:48:35.848Z,33344
2019-02-28T11:49:46.010Z,18208
2019-02-28T11:50:56.198Z,21184
2019-02-28T11:52:06.328Z,14048
2019-02-28T11:53:16.529Z,14432
2019-02-28T11:54:26.996Z,22528
2019-02-28T11:55:37.169Z,21760
2019-02-28T11:56:47.308Z,20544
2019-02-28T11:57:57.487Z,26336
2019-02-28T11:59:07.605Z,33472
2019-02-28T12:00:18.055Z,31136
2019-02-28T12:01:28.192Z,28128
2019-02-28T12:02:39.102Z,22400
2019-02-28T12:03:49.262Z,27424
2019-02-28T12:04:59.385Z,20416
2019-02-28T12:06:11.682Z,25792
2019-02-28T12:07:21.809Z,22144
2019-02-28T12:08:31.935Z,20928
2019-02-28T12:09:42.081Z,19456
2019-02-28T12:10:52.238Z,17280
2019-02-28T12:12:03.437Z,21344
2019-02-28T12:13:21.656Z,20832
2019-02-28T12:14:36.314Z,20864
2019-02-28T12:15:47.226Z,20416
2019-02-28T12:17:00.816Z,19040
2019-02-28T12:18:12.144Z,21728
2019-02-28T12:19:23.238Z,17568
2019-02-28T12:20:34.581Z,15136
2019-02-28T12:21:46.027Z,16768
2019-02-28T12:22:57.280Z,18880
2019-02-28T12:24:07.983Z,17856
2019-02-28T12:25:17.887Z,16704
2019-02-28T12:26:28.434Z,17888
2019-02-28T12:27:38.574Z,19040
2019-02-28T12:28:48.708Z,18144
2019-02-28T12:29:58.851Z,17664
2019-02-28T12:31:08.998Z,17216
2019-02-28T12:32:19.381Z,16640
2019-02-28T12:33:30.450Z,16192
2019-02-28T12:34:40.579Z,15648
2019-02-28T12:35:50.710Z,15552
2019-02-28T12:37:04.708Z,18080
2019-02-28T12:38:14.852Z,20000
2019-02-28T12:39:26.149Z,19968
2019-02-28T12:40:36.270Z,19840
2019-02-28T12:41:47.447Z,20320
2019-02-28T12:42:57.576Z,20192
2019-02-28T12:44:07.719Z,19520
2019-02-28T12:45:21.163Z,20096
2019-02-28T12:46:36.763Z,19456
2019-02-28T12:47:50.706Z,18496
2019-02-28T12:49:00.853Z,16384
2019-02-28T12:50:11.010Z,18368
2019-02-28T12:51:21.230Z,15168
2019-02-28T12:52:31.396Z,15808
2019-02-28T12:53:41.552Z,15040
2019-02-28T12:54:51.672Z,14592
2019-02-28T12:56:01.808Z,16736
2019-02-28T12:57:11.969Z,16256
2019-02-28T12:58:22.113Z,15168
2019-02-28T12:59:34.699Z,14464
2019-02-28T13:00:44.956Z,15040
2019-02-28T13:01:55.121Z,14304
2019-02-28T13:03:05.295Z,13012
2019-02-28T13:04:17.020Z,13164
2019-02-28T13:05:27.156Z,13440
2019-02-28T13:06:37.275Z,13104
2019-02-28T13:07:48.568Z,12044
2019-02-28T13:09:00.757Z,11856
2019-02-28T13:10:11.465Z,11404
2019-02-28T13:11:21.610Z,11104
2019-02-28T13:12:31.733Z,10876
2019-02-28T13:13:41.892Z,10784
2019-02-28T13:14:52.048Z,10600
2019-02-28T13:16:02.638Z,10432
2019-02-28T13:17:12.770Z,10332
2019-02-28T13:18:23.928Z,10196
2019-02-28T13:19:34.103Z,10260
2019-02-28T13:20:43.996Z,9968
2019-02-28T13:21:55.201Z,10324
2019-02-28T13:23:08.049Z,10772
2019-02-28T13:24:18.176Z,10488
2019-02-28T13:25:31.554Z,10000
2019-02-28T13:26:41.723Z,10516
2019-02-28T13:27:52.784Z,10068
2019-02-28T13:29:05.318Z,11772
2019-02-28T13:30:19.131Z,11912
2019-02-28T13:31:35.346Z,11016
2019-02-28T13:32:46.531Z,10152
2019-02-28T13:34:03.620Z,9568
2019-02-28T13:35:15.674Z,9672
2019-02-28T13:36:29.099Z,9460
2019-02-28T13:37:47.255Z,8996
2019-02-28T13:39:02.930Z,8704
2019-02-28T13:40:16.404Z,8616
2019-02-28T13:41:33.267Z,8308
2019-02-28T13:42:47.775Z,8312
2019-02-28T13:44:02.518Z,8396
2019-02-28T13:45:27.601Z,8068
2019-02-28T13:46:41.347Z,7708
2019-02-28T13:47:53.565Z,7620
2019-02-28T13:49:03.703Z,7892
2019-02-28T13:50:17.381Z,8136
2019-02-28T13:51:40.054Z,8132
2019-02-28T13:52:54.943Z,8740
2019-02-28T13:54:14.513Z,8976
2019-02-28T13:55:26.370Z,8424
2019-02-28T13:56:41.390Z,7940
2019-02-28T13:57:54.116Z,7948
2019-02-28T13:59:05.648Z,7940
2019-02-28T14:00:16.334Z,7904
2019-02-28T14:01:27.619Z,7588
2019-02-28T14:02:41.021Z,7380
2019-02-28T14:03:53.359Z,7260
2019-02-28T14:05:08.737Z,7176
2019-02-28T14:06:25.982Z,7108
2019-02-28T14:07:38.576Z,7052
2019-02-28T14:08:52.267Z,7020
2019-02-28T14:10:05.591Z,7028
2019-02-28T14:11:18.247Z,7096
2019-02-28T14:12:31.313Z,7168
2019-02-28T14:13:42.271Z,7152
2019-02-28T14:14:52.426Z,7160
2019-02-28T14:16:02.552Z,7084
2019-02-28T14:17:12.698Z,7032
2019-02-28T14:18:22.836Z,7008
2019-02-28T14:19:32.959Z,6952
2019-02-28T14:20:43.081Z,6884
2019-02-28T14:21:53.206Z,6824
2019-02-28T14:23:03.331Z,6772
2019-02-28T14:24:13.470Z,6680
2019-02-28T14:25:23.680Z,6604
2019-02-28T14:26:46.499Z,6504
2019-02-28T14:28:02.874Z,6392
2019-02-28T14:29:16.204Z,6300
2019-02-28T14:30:27.726Z,6240
2019-02-28T14:31:40.911Z,6176
2019-02-28T14:32:52.881Z,6112
2019-02-28T14:34:03.063Z,6068
2019-02-28T14:35:13.204Z,6036
2019-02-28T14:36:23.338Z,6024
2019-02-28T14:37:33.121Z,6000
2019-02-28T14:38:43.254Z,5948
2019-02-28T14:39:53.404Z,5892
2019-02-28T14:41:04.286Z,5820
2019-02-28T14:42:15.376Z,5736
2019-02-28T14:43:27.033Z,5640
2019-02-28T14:44:39.721Z,5528
2019-02-28T14:45:51.182Z,5416
2019-02-28T14:47:01.441Z,5296
2019-02-28T14:48:12.472Z,5180
2019-02-28T14:49:22.611Z,5044
2019-02-28T14:50:32.734Z,4916
2019-02-28T14:51:42.899Z,4800
2019-02-28T14:52:53.033Z,4704
2019-02-28T14:54:03.187Z,4636
2019-02-28T14:55:13.318Z,4560
2019-02-28T14:56:23.485Z,4512
2019-02-28T14:57:33.623Z,4456
2019-02-28T14:58:43.767Z,4408
2019-02-28T14:59:53.891Z,4360
2019-02-28T15:01:04.033Z,4292
2019-02-28T15:02:14.187Z,4240
2019-02-28T15:03:24.325Z,4172
2019-02-28T15:04:34.684Z,4112
2019-02-28T15:05:47.647Z,4056
2019-02-28T15:07:02.999Z,4004
2019-02-28T15:08:17.792Z,3944
2019-02-28T15:09:29.566Z,3884
2019-02-28T15:10:41.640Z,3824
2019-02-28T15:11:55.174Z,3760
2019-02-28T15:13:07.477Z,3704
2019-02-28T15:14:17.625Z,3652
2019-02-28T15:15:27.755Z,3608
2019-02-28T15:16:37.920Z,3560
2019-02-28T15:17:49.286Z,3512
2019-02-28T15:18:59.449Z,3464
2019-02-28T15:20:11.367Z,3436
2019-02-28T15:21:22.939Z,3432
2019-02-28T15:22:33.097Z,3432
2019-02-28T15:23:43.256Z,3412
2019-02-28T15:24:53.160Z,3372
2019-02-28T15:26:03.285Z,3316
2019-02-28T15:27:13.450Z,3256
2019-02-28T15:28:23.594Z,3188
2019-02-28T15:29:34.265Z,3116
2019-02-28T15:30:44.424Z,3068
2019-02-28T15:31:54.585Z,3024
2019-02-28T15:33:04.744Z,2984
2019-02-28T15:34:14.900Z,2940
2019-02-28T15:35:25.041Z,2904
2019-02-28T15:36:35.207Z,2864
2019-02-28T15:37:45.336Z,2812
2019-02-28T15:38:55.479Z,2752
2019-02-28T15:40:05.525Z,2684
2019-02-28T15:41:15.683Z,2620
2019-02-28T15:42:26.371Z,2564
2019-02-28T15:43:36.549Z,2504
2019-02-28T15:44:46.733Z,2432
2019-02-28T15:45:56.853Z,2372
2019-02-28T15:47:06.978Z,2320
2019-02-28T15:48:17.128Z,2264
2019-02-28T15:49:27.027Z,2196
2019-02-28T15:50:37.152Z,2124
2019-02-28T15:51:47.275Z,2068
2019-02-28T15:52:57.663Z,1992
2019-02-28T15:54:07.816Z,1916
2019-02-28T15:55:17.942Z,1840
2019-02-28T15:56:28.265Z,1764
2019-02-28T15:57:38.605Z,1688
2019-02-28T15:58:49.650Z,1616
2019-02-28T16:00:01.065Z,1540
2019-02-28T16:01:11.200Z,1480
2019-02-28T16:02:21.850Z,1412
2019-02-28T16:03:32.001Z,1356
2019-02-28T16:04:42.123Z,1296
2019-02-28T16:05:52.338Z,1240
2019-02-28T16:07:05.508Z,1180
2019-02-28T16:08:17.914Z,1124
2019-02-28T16:09:28.810Z,1076
2019-02-28T16:10:39.855Z,1020
2019-02-28T16:12:00.608Z,968
2019-02-28T16:13:10.749Z,920
2019-02-28T16:14:22.389Z,876
2019-02-28T16:15:32.540Z,828
2019-02-28T16:16:42.706Z,788
2019-02-28T16:17:52.869Z,748
2019-02-28T16:19:02.800Z,712
2019-02-28T16:20:12.971Z,672
2019-02-28T16:21:23.133Z,640
2019-02-28T16:22:33.252Z,604
2019-02-28T16:23:42.855Z,576
2019-02-28T16:24:52.977Z,544
2019-02-28T16:26:03.126Z,508
2019-02-28T16:27:13.278Z,480
2019-02-28T16:28:23.440Z,448